createdAt,value
2022-11-24T00:01:24.823Z,83.08
2022-11-24T00:03:59.354Z,82.49
2022-11-24T00:06:28.691Z,82.14
2022-11-24T00:08:57.955Z,81.77
2022-11-24T00:11:29.012Z,81.90
2022-11-24T00:13:58.823Z,81.25
2022-11-24T00:16:31.287Z,81.11
2022-11-24T00:19:02.691Z,81.32
2022-11-24T00:21:33.221Z,81.06
2022-11-24T00:24:01.855Z,81.38
2022-11-24T00:26:32.895Z,82.18
2022-11-24T00:29:04.228Z,82.11
2022-11-24T00:31:37.546Z,81.50
2022-11-24T00:34:08.752Z,81.06
2022-11-24T00:36:38.225Z,81.39
2022-11-24T00:39:08.919Z,81.63
2022-11-24T00:41:37.092Z,82.33
2022-11-24T00:44:05.773Z,82.19
2022-11-24T00:46:35.893Z,82.92
2022-11-24T00:49:04.799Z,82.56
2022-11-24T00:51:33.269Z,83.12
2022-11-24T00:54:02.432Z,83.60
2022-11-24T00:56:31.625Z,83.77
2022-11-24T00:58:59.899Z,82.76
2022-11-24T01:01:31.064Z,82.44
2022-11-24T01:04:02.472Z,82.42
2022-11-24T01:06:32.536Z,83.22
2022-11-24T01:09:00.884Z,83.71
2022-11-24T01:11:53.174Z,83.93
2022-11-24T01:14:22.995Z,83.01
2022-11-24T01:16:51.236Z,82.95
2022-11-24T01:19:21.472Z,82.90
2022-11-24T01:21:49.650Z,83.08
2022-11-24T01:24:18.206Z,82.12
2022-11-24T01:26:46.426Z,82.41
2022-11-24T01:29:14.642Z,82.61
2022-11-24T01:31:42.868Z,82.77
2022-11-24T01:34:11.101Z,82.78
2022-11-24T01:36:40.865Z,82.85
2022-11-24T01:39:09.059Z,82.46
2022-11-24T01:41:37.225Z,82.46
2022-11-24T01:44:23.713Z,82.51
2022-11-24T01:46:57.596Z,82.81
2022-11-24T01:49:40.471Z,82.49
2022-11-24T01:52:16.682Z,82.68
2022-11-24T01:54:50.856Z,82.38
2022-11-24T01:57:26.026Z,82.67
2022-11-24T01:59:59.481Z,83.16
2022-11-24T02:02:30.813Z,83.11
2022-11-24T02:05:09.267Z,83.17
2022-11-24T02:07:39.240Z,80.88
2022-11-24T02:10:13.944Z,79.88
2022-11-24T02:12:46.899Z,80.48
2022-11-24T02:15:16.991Z,80.91
2022-11-24T02:17:45.513Z,80.98
2022-11-24T02:20:16.428Z,81.80
2022-11-24T02:22:53.607Z,82.35
2022-11-24T02:25:35.480Z,81.56
2022-11-24T02:28:09.952Z,82.03
2022-11-24T02:30:38.159Z,82.12
2022-11-24T02:33:06.437Z,82.63
2022-11-24T02:35:35.699Z,82.32
2022-11-24T02:38:03.915Z,82.54
2022-11-24T02:40:32.635Z,83.04
2022-11-24T02:43:08.722Z,83.22
2022-11-24T02:45:36.876Z,83.34
2022-11-24T02:48:05.520Z,83.63
2022-11-24T02:50:33.699Z,83.41
2022-11-24T02:53:01.849Z,83.22
2022-11-24T02:55:30.009Z,83.17
2022-11-24T02:57:58.176Z,83.16
2022-11-24T03:00:27.710Z,82.50
2022-11-24T03:02:55.916Z,82.44
2022-11-24T03:05:24.409Z,82.60
2022-11-24T03:07:52.618Z,82.12
2022-11-24T03:10:21.018Z,81.83
2022-11-24T03:12:49.186Z,82.22
2022-11-24T03:15:17.535Z,82.49
2022-11-24T03:17:47.043Z,82.46
2022-11-24T03:20:15.226Z,82.52
2022-11-24T03:22:43.625Z,82.28
2022-11-24T03:25:11.801Z,82.42
2022-11-24T03:27:39.979Z,82.40
2022-11-24T03:30:10.008Z,82.47
2022-11-24T03:32:38.128Z,81.99
2022-11-24T03:35:09.019Z,81.87
2022-11-24T03:37:37.328Z,81.78
2022-11-24T03:40:07.121Z,81.61
2022-11-24T03:42:35.318Z,81.91
2022-11-24T03:45:29.830Z,82.03
2022-11-24T03:47:52.390Z,82.16
2022-11-24T03:50:21.912Z,82.35
2022-11-24T03:52:50.043Z,82.35
2022-11-24T03:55:18.325Z,82.44
2022-11-24T03:57:46.469Z,82.10
2022-11-24T04:00:15.726Z,81.92
2022-11-24T04:02:44.079Z,81.62
2022-11-24T04:05:12.514Z,81.82
2022-11-24T04:07:42.123Z,81.52
2022-11-24T04:10:10.603Z,81.41
2022-11-24T04:12:46.522Z,81.35
2022-11-24T04:15:17.684Z,81.63
2022-11-24T04:17:48.227Z,81.85
2022-11-24T04:20:17.977Z,81.54
2022-11-24T04:22:47.586Z,81.41
2022-11-24T04:25:17.456Z,81.76
2022-11-24T04:27:45.723Z,82.04
2022-11-24T04:30:14.218Z,82.01
2022-11-24T04:32:42.360Z,81.85
2022-11-24T04:35:11.241Z,82.27
2022-11-24T04:37:39.416Z,82.14
2022-11-24T04:40:12.454Z,82.24
2022-11-24T04:42:40.634Z,82.71
2022-11-24T04:45:09.797Z,82.82
2022-11-24T04:47:38.270Z,82.25
2022-11-24T04:50:08.724Z,82.53
2022-11-24T04:52:36.858Z,82.72
2022-11-24T04:55:05.344Z,82.88
2022-11-24T04:57:34.894Z,83.14
2022-11-24T05:00:03.060Z,83.54
2022-11-24T05:02:31.232Z,83.22
2022-11-24T05:04:59.378Z,83.51
2022-11-24T05:07:27.503Z,83.65
2022-11-24T05:10:12.875Z,83.56
2022-11-24T05:12:45.755Z,84.07
2022-11-24T05:15:16.700Z,84.34
2022-11-24T05:17:44.796Z,84.37
2022-11-24T05:20:13.065Z,84.48
2022-11-24T05:22:41.240Z,84.44
2022-11-24T05:25:10.240Z,84.55
2022-11-24T05:27:38.615Z,84.69
2022-11-24T05:30:10.118Z,84.21
2022-11-24T05:32:38.189Z,84.05
2022-11-24T05:35:09.651Z,84.07
2022-11-24T05:37:38.761Z,84.23
2022-11-24T05:40:09.856Z,84.33
2022-11-24T05:42:47.686Z,84.33
2022-11-24T05:45:21.572Z,84.16
2022-11-24T05:47:50.987Z,84.23
2022-11-24T05:50:22.352Z,84.64
2022-11-24T05:52:51.009Z,84.90
2022-11-24T05:55:20.474Z,85.39
2022-11-24T05:57:48.822Z,85.31
2022-11-24T06:00:20.101Z,85.11
2022-11-24T06:02:49.112Z,84.84
2022-11-24T06:05:17.704Z,85.21
2022-11-24T06:07:46.005Z,85.42
2022-11-24T06:10:14.715Z,85.93
2022-11-24T06:12:42.931Z,86.22
2022-11-24T06:15:12.215Z,85.81
2022-11-24T06:17:42.324Z,84.55
2022-11-24T06:20:12.435Z,84.73
2022-11-24T06:22:40.510Z,85.05
2022-11-24T06:25:10.005Z,85.29
2022-11-24T06:27:38.116Z,85.93
2022-11-24T06:30:07.577Z,86.11
2022-11-24T06:32:35.693Z,86.45
2022-11-24T06:35:06.425Z,86.64
2022-11-24T06:37:37.683Z,85.90
2022-11-24T06:40:09.022Z,85.67
2022-11-24T06:42:37.477Z,85.88
2022-11-24T06:45:09.333Z,85.57
2022-11-24T06:47:37.977Z,86.18
2022-11-24T06:50:10.532Z,86.43
2022-11-24T06:52:38.639Z,85.86
2022-11-24T06:55:08.421Z,86.62
2022-11-24T06:57:36.553Z,86.12
2022-11-24T07:00:06.473Z,85.72
2022-11-24T07:02:35.078Z,85.19
2022-11-24T07:05:03.221Z,85.15
2022-11-24T07:07:32.786Z,85.06
2022-11-24T07:10:01.032Z,84.28
2022-11-24T07:12:29.246Z,84.76
2022-11-24T07:14:57.341Z,84.34
2022-11-24T07:17:25.507Z,84.97
2022-11-24T07:19:53.597Z,85.03
2022-11-24T07:22:21.797Z,85.09
2022-11-24T07:24:51.270Z,85.27
2022-11-24T07:27:19.390Z,85.62
2022-11-24T07:29:47.494Z,85.93
2022-11-24T07:32:16.095Z,86.28
2022-11-24T07:34:44.253Z,86.58
2022-11-24T07:37:12.397Z,86.15
2022-11-24T07:39:40.488Z,85.79
2022-11-24T07:42:11.372Z,86.21
2022-11-24T07:44:40.629Z,85.68
2022-11-24T07:47:08.867Z,85.07
2022-11-24T07:49:36.997Z,85.21
2022-11-24T07:52:05.852Z,85.44
2022-11-24T07:54:34.157Z,85.54
2022-11-24T07:57:02.497Z,85.01
2022-11-24T07:59:32.022Z,85.03
2022-11-24T08:02:00.710Z,84.72
2022-11-24T08:04:28.910Z,84.48
2022-11-24T08:06:57.041Z,84.35
2022-11-24T08:09:25.152Z,84.21
2022-11-24T08:11:53.302Z,83.82
2022-11-24T08:14:21.396Z,83.31
2022-11-24T08:16:50.907Z,83.05
2022-11-24T08:19:19.037Z,82.30
2022-11-24T08:21:47.143Z,82.05
2022-11-24T08:24:16.912Z,81.50
2022-11-24T08:26:45.283Z,80.94
2022-11-24T08:29:13.383Z,81.29
2022-11-24T08:31:41.642Z,81.59
2022-11-24T08:34:11.784Z,81.53
2022-11-24T08:36:39.954Z,81.63
2022-11-24T08:39:08.114Z,81.73
2022-11-24T08:41:36.284Z,81.31
2022-11-24T08:44:04.705Z,80.72
2022-11-24T08:46:32.970Z,79.91
2022-11-24T08:49:01.159Z,80.35
2022-11-24T08:51:31.035Z,80.67
2022-11-24T08:54:02.611Z,80.56
2022-11-24T08:56:32.788Z,80.38
2022-11-24T08:59:01.759Z,79.19
2022-11-24T09:01:30.547Z,79.51
2022-11-24T09:03:59.313Z,79.59
2022-11-24T09:06:31.529Z,79.45
2022-11-24T09:09:00.727Z,78.18
2022-11-24T09:11:29.264Z,78.08
2022-11-24T09:13:57.936Z,77.95
2022-11-24T09:16:29.295Z,76.84
2022-11-24T09:18:59.390Z,75.76
2022-11-24T09:21:28.410Z,76.67
2022-11-24T09:23:58.705Z,77.18
2022-11-24T09:26:29.837Z,76.79
2022-11-24T09:29:00.549Z,76.72
2022-11-24T09:31:33.469Z,76.75
2022-11-24T09:34:02.671Z,76.58
2022-11-24T09:36:31.803Z,76.81
2022-11-24T09:39:01.645Z,76.91
2022-11-24T09:42:03.729Z,77.62
2022-11-24T09:45:10.183Z,77.76
2022-11-24T09:47:59.011Z,77.63
2022-11-24T09:50:31.153Z,77.81
2022-11-24T09:53:06.931Z,77.74
2022-11-24T09:55:43.024Z,77.68
2022-11-24T09:58:20.540Z,77.66
2022-11-24T10:00:53.252Z,77.42
2022-11-24T10:03:32.982Z,76.89
2022-11-24T10:06:06.528Z,76.54
2022-11-24T10:08:58.697Z,75.98
2022-11-24T10:11:39.226Z,75.30
2022-11-24T10:14:53.652Z,75.08
2022-11-24T10:17:58.227Z,73.98
2022-11-24T10:20:49.847Z,73.23
2022-11-24T10:23:39.811Z,73.17
2022-11-24T10:26:17.271Z,72.83
2022-11-24T10:28:55.752Z,71.43
2022-11-24T10:31:31.651Z,71.43
2022-11-24T10:34:11.278Z,72.41
2022-11-24T10:36:49.350Z,72.13
2022-11-24T10:39:28.958Z,72.10
2022-11-24T10:42:07.076Z,72.72
2022-11-24T10:44:36.590Z,73.47
2022-11-24T10:47:04.688Z,74.29
2022-11-24T10:49:34.951Z,74.74
2022-11-24T10:52:12.759Z,75.02
2022-11-24T10:54:56.894Z,75.60
2022-11-24T10:57:34.104Z,75.52
2022-11-24T11:00:26.029Z,75.45
2022-11-24T11:03:18.090Z,75.29
2022-11-24T11:05:53.248Z,75.70
2022-11-24T11:08:26.391Z,75.48
2022-11-24T11:11:19.403Z,75.63
2022-11-24T11:14:00.072Z,75.72
2022-11-24T11:16:39.879Z,76.02
2022-11-24T11:20:00.369Z,76.16
2022-11-24T11:22:29.569Z,75.78
2022-11-24T11:25:19.382Z,75.89
2022-11-24T11:27:48.238Z,75.91
2022-11-24T11:36:17.007Z,76.91
2022-11-24T11:38:48.113Z,77.02
2022-11-24T11:41:29.345Z,77.02
2022-11-24T11:44:22.603Z,77.32
2022-11-24T11:46:50.812Z,77.03
2022-11-24T11:49:20.432Z,76.86
2022-11-24T11:52:16.794Z,76.84
2022-11-24T11:55:18.685Z,76.77
2022-11-24T11:58:00.102Z,76.48
2022-11-24T12:00:30.847Z,76.09
2022-11-24T12:03:51.414Z,75.77
2022-11-24T12:06:43.293Z,75.49
2022-11-24T12:09:27.951Z,75.41
2022-11-24T12:12:22.571Z,75.38
2022-11-24T12:15:10.713Z,75.26
2022-11-24T12:17:46.005Z,75.06
2022-11-24T12:20:48.063Z,74.54
2022-11-24T12:23:30.347Z,74.71
2022-11-24T12:26:10.440Z,74.58
2022-11-24T12:28:53.490Z,74.68
2022-11-24T12:31:32.060Z,74.47
2022-11-24T12:34:22.589Z,73.25
2022-11-24T12:37:18.187Z,72.75
2022-11-24T12:39:56.614Z,72.11
2022-11-24T12:42:40.296Z,72.78
2022-11-24T12:45:18.821Z,72.59
2022-11-24T12:48:08.374Z,72.28
2022-11-24T12:50:40.255Z,72.13
2022-11-24T12:53:16.987Z,72.44
2022-11-24T12:55:48.017Z,72.55
2022-11-24T12:58:26.343Z,73.11
2022-11-24T13:01:14.845Z,72.85
2022-11-24T13:04:02.040Z,72.99
2022-11-24T13:06:43.101Z,72.29
2022-11-24T13:09:15.302Z,72.99
2022-11-24T13:11:46.726Z,73.65
2022-11-24T13:14:23.293Z,74.22
2022-11-24T13:17:27.867Z,74.59
2022-11-24T13:19:47.459Z,74.76
2022-11-24T13:22:24.262Z,75.49
2022-11-24T13:25:19.321Z,75.88
2022-11-24T13:27:52.986Z,76.34
2022-11-24T13:31:08.325Z,76.76
2022-11-24T13:33:40.810Z,76.70
2022-11-24T13:36:32.319Z,76.94
2022-11-24T13:39:02.460Z,77.10
2022-11-24T13:42:43.290Z,77.02
2022-11-24T13:45:04.133Z,77.14
2022-11-24T13:47:42.505Z,77.63
2022-11-24T13:51:04.445Z,77.68
2022-11-24T13:53:38.268Z,78.05
2022-11-24T13:56:23.344Z,77.97
2022-11-24T13:58:54.885Z,78.01
2022-11-24T14:01:28.215Z,77.97
2022-11-24T14:04:34.991Z,76.93
2022-11-24T14:07:09.530Z,76.84
2022-11-24T14:09:44.449Z,76.82
2022-11-24T14:12:19.017Z,76.53
2022-11-24T14:14:49.715Z,76.96
2022-11-24T14:17:24.757Z,77.33
2022-11-24T14:19:55.686Z,77.81
2022-11-24T14:22:27.650Z,78.17
2022-11-24T14:24:59.247Z,78.71
2022-11-24T14:27:35.119Z,78.94
2022-11-24T14:30:19.105Z,79.37
2022-11-24T14:32:57.172Z,79.44
2022-11-24T14:35:28.824Z,79.82
2022-11-24T14:37:57.385Z,80.03
2022-11-24T14:40:43.869Z,80.21
2022-11-24T14:43:22.314Z,80.46
2022-11-24T14:45:54.906Z,81.06
2022-11-24T14:48:29.084Z,81.21
2022-11-24T14:51:09.721Z,81.50
2022-11-24T14:53:41.811Z,81.82
2022-11-24T14:56:25.815Z,81.87
2022-11-24T14:58:55.327Z,82.11
2022-11-24T15:01:32.745Z,82.37
2022-11-24T15:04:46.417Z,82.72
2022-11-24T15:07:20.638Z,83.38
2022-11-24T15:09:57.667Z,83.74
2022-11-24T15:12:34.207Z,84.00
2022-11-24T15:15:06.208Z,84.16
2022-11-24T15:17:35.198Z,84.42
2022-11-24T15:20:12.590Z,84.55
2022-11-24T15:22:43.380Z,84.63
2022-11-24T15:25:31.028Z,84.83
2022-11-24T15:27:59.326Z,84.92
2022-11-24T15:30:28.613Z,85.02
2022-11-24T15:32:58.999Z,85.12
2022-11-24T15:35:33.608Z,85.08
2022-11-24T15:38:03.894Z,85.31
2022-11-24T15:40:32.413Z,85.18
2022-11-24T15:43:05.040Z,85.40
2022-11-24T15:45:35.716Z,85.36
2022-11-24T15:48:03.790Z,85.40
2022-11-24T15:50:33.322Z,85.38
2022-11-24T15:53:01.448Z,85.49
2022-11-24T15:55:29.749Z,85.52
2022-11-24T15:57:57.832Z,85.30
2022-11-24T16:00:26.079Z,85.13
2022-11-24T16:02:54.505Z,85.04
2022-11-24T16:05:22.594Z,85.00
2022-11-24T16:07:51.979Z,85.07
2022-11-24T16:10:27.342Z,84.53
2022-11-24T16:12:55.449Z,84.04
2022-11-24T16:15:23.898Z,84.21
2022-11-24T16:17:52.332Z,84.37
2022-11-24T16:20:21.190Z,84.81
2022-11-24T16:22:49.262Z,85.33
2022-11-24T16:25:18.869Z,85.83
2022-11-24T16:27:47.007Z,86.13
2022-11-24T16:30:15.579Z,86.54
2022-11-24T16:32:43.663Z,86.76
2022-11-24T16:35:11.957Z,87.38
2022-11-24T16:37:40.112Z,87.74
2022-11-24T16:40:09.766Z,88.02
2022-11-24T16:42:39.194Z,88.52
2022-11-24T16:45:08.712Z,89.09
2022-11-24T16:47:40.753Z,89.38
2022-11-24T16:50:11.250Z,89.73
2022-11-24T16:52:40.007Z,90.13
2022-11-24T16:55:09.626Z,90.37
2022-11-24T16:57:39.052Z,90.57
2022-11-24T17:00:09.601Z,90.97
2022-11-24T17:02:37.883Z,91.06
2022-11-24T17:05:07.024Z,91.43
2022-11-24T17:07:35.270Z,91.58
2022-11-24T17:10:03.385Z,91.57
2022-11-24T17:12:31.436Z,91.94
2022-11-24T17:15:31.053Z,91.99
2022-11-24T17:18:16.356Z,92.39
2022-11-24T17:20:36.968Z,92.65
2022-11-24T17:23:05.019Z,92.48
2022-11-24T17:25:34.075Z,93.01
2022-11-24T17:28:02.225Z,93.00
2022-11-24T17:30:31.630Z,93.21
2022-11-24T17:32:59.696Z,93.28
2022-11-24T17:35:27.720Z,93.36
2022-11-24T17:37:56.986Z,93.56
2022-11-24T17:40:29.332Z,93.69
2022-11-24T17:43:00.331Z,93.74
2022-11-24T17:45:30.358Z,93.76
2022-11-24T17:48:00.706Z,93.69
2022-11-24T17:50:28.801Z,93.89
2022-11-24T17:52:56.876Z,93.98
2022-11-24T17:55:24.913Z,94.09
2022-11-24T17:57:53.028Z,94.24
2022-11-24T18:00:21.631Z,94.26
2022-11-24T18:02:49.782Z,94.29
2022-11-24T18:05:19.367Z,94.52
2022-11-24T18:07:47.580Z,94.65
2022-11-24T18:10:15.807Z,94.63
2022-11-24T18:12:43.881Z,94.81
2022-11-24T18:15:12.372Z,95.11
2022-11-24T18:17:40.483Z,94.91
2022-11-24T18:20:10.711Z,95.16
2022-11-24T18:23:04.686Z,95.15
2022-11-24T18:25:29.560Z,95.07
2022-11-24T18:27:57.932Z,95.39
2022-11-24T18:30:25.993Z,95.42
2022-11-24T18:32:54.035Z,95.33
2022-11-24T18:35:22.058Z,95.42
2022-11-24T18:37:51.471Z,95.15
2022-11-24T18:40:19.671Z,95.15
2022-11-24T18:42:47.701Z,95.35
2022-11-24T18:45:15.848Z,95.33
2022-11-24T18:47:43.905Z,95.31
2022-11-24T18:50:12.322Z,94.98
2022-11-24T18:52:40.378Z,94.81
2022-11-24T18:55:10.997Z,94.75
2022-11-24T18:57:39.064Z,94.65
2022-11-24T19:00:09.165Z,94.82
2022-11-24T19:02:37.330Z,94.73
2022-11-24T19:05:06.126Z,94.86
2022-11-24T19:07:34.316Z,94.85
2022-11-24T19:10:02.517Z,94.93
2022-11-24T19:12:32.013Z,94.64
2022-11-24T19:15:00.240Z,94.79
2022-11-24T19:17:28.530Z,94.89
2022-11-24T19:19:56.668Z,94.69
2022-11-24T19:22:24.815Z,94.85
2022-11-24T19:24:52.921Z,94.74
2022-11-24T19:27:21.853Z,94.55
2022-11-24T19:29:51.321Z,94.34
2022-11-24T19:32:20.183Z,94.21
2022-11-24T19:34:48.295Z,93.90
2022-11-24T19:37:16.459Z,93.84
2022-11-24T19:39:44.562Z,93.63
2022-11-24T19:42:12.695Z,93.56
2022-11-24T19:44:40.837Z,93.37
2022-11-24T19:47:10.317Z,92.88
2022-11-24T19:49:38.496Z,92.76
2022-11-24T19:52:06.635Z,92.61
2022-11-24T19:54:35.633Z,92.45
2022-11-24T19:57:04.214Z,92.40
2022-11-24T19:59:32.297Z,92.28
2022-11-24T20:02:02.410Z,92.12
2022-11-24T20:04:33.197Z,91.93
2022-11-24T20:07:01.651Z,91.88
2022-11-24T20:09:32.786Z,91.35
2022-11-24T20:12:00.983Z,91.35
2022-11-24T20:14:29.123Z,91.14
2022-11-24T20:16:57.244Z,91.23
2022-11-24T20:19:26.590Z,91.12
2022-11-24T20:21:56.130Z,91.21
2022-11-24T20:24:24.874Z,91.33
2022-11-24T20:26:58.155Z,91.12
2022-11-24T20:29:28.274Z,91.12
2022-11-24T20:31:57.687Z,91.06
2022-11-24T20:34:28.325Z,91.02
2022-11-24T20:36:57.874Z,91.10
2022-11-24T20:39:28.608Z,91.06
2022-11-24T20:41:57.423Z,91.12
2022-11-24T20:44:26.679Z,91.18
2022-11-24T20:46:59.642Z,91.38
2022-11-24T20:49:29.381Z,91.23
2022-11-24T20:51:58.935Z,91.03
2022-11-24T20:54:27.187Z,91.30
2022-11-24T20:56:55.524Z,91.10
2022-11-24T20:59:25.822Z,91.15
2022-11-24T21:01:56.114Z,91.05
2022-11-24T21:04:27.319Z,91.05
2022-11-24T21:06:55.954Z,90.86
2022-11-24T21:09:27.182Z,90.68
2022-11-24T21:11:55.653Z,90.67
2022-11-24T21:14:24.405Z,90.30
2022-11-24T21:16:52.750Z,90.01
2022-11-24T21:19:21.182Z,89.81
2022-11-24T21:21:49.995Z,90.16
2022-11-24T21:24:21.470Z,89.98
2022-11-24T21:26:52.548Z,90.24
2022-11-24T21:29:23.308Z,90.27
2022-11-24T21:31:51.646Z,90.56
2022-11-24T21:34:20.186Z,90.47
2022-11-24T21:36:48.497Z,90.63
2022-11-24T21:39:17.617Z,90.26
2022-11-24T21:41:45.788Z,90.25
2022-11-24T21:44:16.000Z,90.39
2022-11-24T21:46:49.644Z,90.34
2022-11-24T21:49:20.698Z,90.50
2022-11-24T21:51:54.973Z,90.69
2022-11-24T21:54:23.154Z,90.99
2022-11-24T21:56:51.248Z,91.19
2022-11-24T21:59:21.818Z,91.47
2022-11-24T22:01:49.917Z,91.71
2022-11-24T22:04:18.203Z,91.57
2022-11-24T22:06:46.337Z,91.39
2022-11-24T22:09:17.991Z,91.49
2022-11-24T22:11:48.981Z,91.55
2022-11-24T22:14:17.071Z,91.71
2022-11-24T22:16:46.970Z,91.74
2022-11-24T22:19:15.284Z,91.80
2022-11-24T22:21:43.498Z,92.00
2022-11-24T22:24:11.778Z,91.98
2022-11-24T22:26:39.909Z,91.90
2022-11-24T22:29:08.343Z,92.01
2022-11-24T22:31:36.527Z,92.40
2022-11-24T22:34:06.077Z,92.57
2022-11-24T22:36:36.519Z,92.69
2022-11-24T22:39:07.101Z,93.10
2022-11-24T22:41:36.512Z,93.29
2022-11-24T22:44:05.520Z,93.48
2022-11-24T22:46:33.934Z,92.96
2022-11-24T22:49:02.830Z,92.42
2022-11-24T22:51:35.585Z,92.01
2022-11-24T22:54:06.279Z,91.76
2022-11-24T22:56:35.211Z,91.71
2022-11-24T22:59:04.961Z,91.33
2022-11-24T23:01:34.623Z,91.45
2022-11-24T23:04:03.845Z,91.57
2022-11-24T23:06:34.576Z,91.80
2022-11-24T23:09:04.429Z,92.03
2022-11-24T23:11:38.312Z,92.12
2022-11-24T23:14:09.323Z,92.46
2022-11-24T23:16:37.595Z,92.64
2022-11-24T23:19:06.313Z,92.70
2022-11-24T23:21:39.255Z,93.13
2022-11-24T23:24:09.577Z,93.13
2022-11-24T23:26:40.075Z,93.40
2022-11-24T23:29:08.886Z,93.46
2022-11-24T23:31:39.776Z,93.84
2022-11-24T23:34:08.344Z,93.80
2022-11-24T23:36:37.931Z,93.98
2022-11-24T23:39:08.429Z,94.01
2022-11-24T23:41:36.624Z,94.08
2022-11-24T23:44:05.129Z,94.14
2022-11-24T23:46:34.460Z,94.31
2022-11-24T23:49:02.659Z,94.29
2022-11-24T23:51:33.013Z,94.57
2022-11-24T23:54:02.596Z,94.59
2022-11-24T23:56:33.547Z,94.77
2022-11-24T23:59:03.270Z,94.81
